Terminal Aerodrome Forecast
Issued by NWS

Home | Current Version | Previous Version | Text Only | Print | Product List | Glossary On
Versions: 1 2 3 4 5 6 7 8 9 10 11 12 13 14 15
000
FTUS43 KSGF 251500 AAA
TAFJLN
TAF AMD
KJLN 251534Z 2516/2612 32020G31KT P6SM OVC025
     FM260100 35008KT P6SM OVC025
     FM260800 VRB04KT P6SM SCT250=

USA.gov is the U.S. government's official web portal to all federal, state and local government web resources and services.